Map

Track Data

SID SEASON NUMBER BASIN SUBBASIN NAME ISO_TIME NATURE LAT LON WMO_WIND WMO_PRES WMO_AGENCY TRACK_TYPE DIST2LAND LANDFALL IFLAG USA_AGENCY USA_ATCF_ID USA_LAT USA_LON USA_RECORD USA_STATUS USA_WIND USA_PRES USA_SSHS USA_R34_NE USA_R34_SE USA_R34_SW USA_R34_NW USA_R50_NE USA_R50_SE USA_R50_SW USA_R50_NW USA_R64_NE USA_R64_SE USA_R64_SW USA_R64_NW USA_POCI USA_ROCI USA_RMW USA_EYE TOKYO_LAT TOKYO_LON TOKYO_GRADE TOKYO_WIND TOKYO_PRES TOKYO_R50_DIR TOKYO_R50_LONG TOKYO_R50_SHORT TOKYO_R30_DIR TOKYO_R30_LONG TOKYO_R30_SHORT TOKYO_LAND CMA_LAT CMA_LON CMA_CAT CMA_WIND CMA_PRES HKO_LAT HKO_LON HKO_CAT HKO_WIND HKO_PRES NEWDELHI_LAT NEWDELHI_LON NEWDELHI_GRADE NEWDELHI_WIND NEWDELHI_PRES NEWDELHI_CI NEWDELHI_DP NEWDELHI_POCI REUNION_LAT REUNION_LON REUNION_TYPE REUNION_WIND REUNION_PRES REUNION_TNUM REUNION_CI REUNION_RMW REUNION_R34_NE REUNION_R34_SE REUNION_R34_SW REUNION_R34_NW REUNION_R50_NE REUNION_R50_SE REUNION_R50_SW REUNION_R50_NW REUNION_R64_NE REUNION_R64_SE REUNION_R64_SW REUNION_R64_NW BOM_LAT BOM_LON BOM_TYPE BOM_WIND BOM_PRES BOM_TNUM BOM_CI BOM_RMW BOM_R34_NE BOM_R34_SE BOM_R34_SW BOM_R34_NW BOM_R50_NE BOM_R50_SE BOM_R50_SW BOM_R50_NW BOM_R64_NE BOM_R64_SE BOM_R64_SW BOM_R64_NW BOM_ROCI BOM_POCI BOM_EYE BOM_POS_METHOD BOM_PRES_METHOD NADI_LAT NADI_LON NADI_CAT NADI_WIND NADI_PRES WELLINGTON_LAT WELLINGTON_LON WELLINGTON_WIND WELLINGTON_PRES DS824_LAT DS824_LON DS824_STAGE DS824_WIND DS824_PRES TD9636_LAT TD9636_LON TD9636_STAGE TD9636_WIND TD9636_PRES TD9635_LAT TD9635_LON TD9635_WIND TD9635_PRES TD9635_ROCI NEUMANN_LAT NEUMANN_LON NEUMANN_CLASS NEUMANN_WIND NEUMANN_PRES MLC_LAT MLC_LON MLC_CLASS MLC_WIND MLC_PRES USA_GUST BOM_GUST BOM_GUST_PER REUNION_GUST REUNION_GUST_PER USA_SEAHGT USA_SEARAD_NE USA_SEARAD_SE USA_SEARAD_SW USA_SEARAD_NW STORM_SPEED STORM_DIR
1983359S13083 1984 99 SI MM SHARON 1983-12-25 00:00:00 TS -13.1000 82.5000 main 2139 2138 __________O_O_ -1 -13.1000 82.5000 1 22 -13.1000 82.5000 TC 20 1005 6 247
1983359S13083 1984 99 SI MM SHARON 1983-12-25 03:00:00 TS -13.2145 82.2242 main 2147 2147 __________P_P_ -1 -13.2314 82.2909 1 23 -13.1977 82.1576 TC 22 1003 5 245
1983359S13083 1984 99 SI MM SHARON 1983-12-25 06:00:00 TS -13.3251 81.9927 main 2156 2156 __________P_O_ -1 -13.3501 82.0853 1 24 -13.3000 81.9000 TC 25 1001 4 241
1983359S13083 1984 99 SI MM SHARON 1983-12-25 09:00:00 TS -13.4256 81.8323 main 2166 2166 __________P_P_ -1 -13.4438 81.8870 1 25 -13.4074 81.7775 TC 27 1000 3 239
1983359S13083 1984 99 SI MM SHARON 1983-12-25 12:00:00 TS -13.5000 81.7000 main 2176 2175 __________O_O_ -1 -13.5000 81.7000 1 27 -13.5000 81.7000 TC 30 999 3 249
1983359S13083 1984 99 SI MM SHARON 1983-12-25 15:00:00 TS -13.5366 81.5395 main 2175 2175 __________P_P_ -1 -13.5156 81.5290 1 33 -13.5575 81.5500 TC 37 994 3 258
1983359S13083 1984 99 SI MM SHARON 1983-12-25 18:00:00 TS -13.5625 81.3912 main 2186 2186 __________P_O_ -1 -13.5250 81.3824 1 40 -13.6000 81.4000 TC 45 990 3 258
1983359S13083 1984 99 SI MM SHARON 1983-12-25 21:00:00 TS -13.5884 81.2773 main 2186 2185 __________P_P_ -1 -13.5719 81.2697 1 47 -13.6050 81.2850 TC 50 988 2 233
1983359S13083 1984 99 SI MM SHARON 1983-12-26 00:00:00 TS -13.7000 81.2000 main 2196 2196 __________O_O_ -1 -13.7000 81.2000 2 54 -13.7000 81.2000 TC 55 986 4 206
1983359S13083 1984 99 SI MM SHARON 1983-12-26 03:00:00 TS -13.9656 81.0871 main 2230 2230 __________P_P_ -1 -13.9262 81.0541 2 54 -14.0050 81.1201 TC 55 985 6 194
1983359S13083 1984 99 SI MM SHARON 1983-12-26 06:00:00 TS -14.3203 81.0344 main 2263 2263 __________P_O_ -1 -14.2407 80.9688 2 54 -14.4000 81.1000 TC 55 984 7 179
1983359S13083 1984 99 SI MM SHARON 1983-12-26 09:00:00 TS -14.6961 81.0932 main 2308 2308 __________P_P_ -1 -14.6348 81.0239 2 54 -14.7575 81.1625 TC 55 985 8 162
1983359S13083 1984 99 SI MM SHARON 1983-12-26 12:00:00 TS -15.1000 81.3000 main 2353 2353 __________O_O_ -1 -15.1000 81.3000 2 54 -15.1000 81.3000 TC 55 986 11 144
1983359S13083 1984 99 SI MM SHARON 1983-12-26 15:00:00 TS -15.5721 81.7627 main 2412 2412 __________P_P_ -1 -15.7367 82.0628 2 54 -15.4074 81.4626 TC 52 986 14 133
1983359S13083 1984 99 SI MM SHARON 1983-12-26 18:00:00 TS -16.0571 82.3616 main 2423 2404 __________P_O_ -1 -16.4143 83.0232 2 54 -15.7000 81.7000 TC 50 987 15 129
1983359S13083 1984 99 SI MM SHARON 1983-12-26 21:00:00 TS -16.5156 82.9841 main 2404 2388 __________P_P_ -1 -17.0087 83.9483 2 54 -16.0225 82.0199 TC 50 987 14 126
1983359S13083 1984 99 SI MM SHARON 1983-12-27 00:00:00 TS -16.8500 83.5000 main 2388 2388 __________O_O_ -1 -17.4000 84.6000 2 54 -16.3000 82.4000 TC 50 988 8 123
1983359S13083 1984 99 SI MM SHARON 1983-12-27 03:00:00 TS -16.9346 83.6482 main 2388 2380 __________P_P_ -1 -17.3817 84.4739 2 52 -16.4876 82.8225 TC 50 988 1 104
1983359S13083 1984 99 SI MM SHARON 1983-12-27 06:00:00 TS -16.8837 83.6395 main 2388 2380 __________P_O_ -1 -17.1674 84.0789 2 51 -16.6000 83.2000 TC 50 988 2 334
1983359S13083 1984 99 SI MM SHARON 1983-12-27 09:00:00 TS -16.7720 83.5626 main 2380 2372 __________P_P_ -1 -16.8941 83.6950 2 50 -16.6499 83.4302 TC 47 989 2 346
1983359S13083 1984 99 SI MM SHARON 1983-12-27 12:00:00 TS -16.7000 83.6000 main 2372 2349 __________O_O_ -1 -16.7000 83.6000 2 49 -16.7000 83.6000 TC 45 990 5 94
1983359S13083 1984 99 SI MM SHARON 1983-12-27 15:00:00 TS -16.8099 84.0694 main 2342 2312 __________P_P_ -1 -16.7924 84.3537 2 46 -16.8274 83.7851 TC 45 990 11 105
1983359S13083 1984 99 SI MM SHARON 1983-12-27 18:00:00 TS -16.9882 84.6981 main 2313 2285 __________P_O_ -1 -16.9763 85.3963 2 43 -17.0000 84.0000 TC 45 991 13 108
1983359S13083 1984 99 SI MM SHARON 1983-12-27 21:00:00 TS -17.1978 85.3519 main 2279 2259 __________P_P_ -1 -17.1957 86.4412 2 40 -17.1999 84.2625 TC 42 992 12 110
1983359S13083 1984 99 SI MM SHARON 1983-12-28 00:00:00 TS -17.4000 85.9000 main 2261 2254 __________O_O_ -1 -17.4000 87.2000 2 38 -17.4000 84.6000 TC 40 994 8 116
1983359S13083 1984 99 SI MM SHARON 1983-12-28 03:00:00 TS -17.5625 86.1216 main 2264 2258 __________P_P_ -1 -17.5524 87.2008 2 36 -17.5726 85.0424 TC 37 995 4 136
1983359S13083 1984 99 SI MM SHARON 1983-12-28 06:00:00 TS -17.6906 86.1983 main 2266 2266 __________P_O_ -1 -17.6812 86.8967 2 35 -17.7000 85.5000 TC 35 996 2 164
1983359S13083 1984 99 SI MM SHARON 1983-12-28 09:00:00 TS -17.7746 86.1833 main 2275 2275 __________P_P_ -1 -17.7692 86.4941 2 33 -17.7799 85.8725 TC 35 996 1 168
1983359S13083 1984 99 SI MM SHARON 1983-12-28 12:00:00 TS -17.8000 86.2000 main 2275 2262 __________O_O_ -1 -17.8000 86.2000 1 32 -17.8000 86.2000 TC 35 997 2 89
1983359S13083 1984 99 SI MM SHARON 1983-12-28 15:00:00 TS -17.7689 86.4389 main 2262 2233 __________P_P_ -1 -17.7578 86.3552 1 32 -17.7800 86.5225 TC 35 997 5 76
1983359S13083 1984 99 SI MM SHARON 1983-12-28 18:00:00 TS -17.6803 86.7202 main 2233 2205 __________P_O_ -1 -17.6607 86.6405 1 32 -17.7000 86.8000 TC 35 997 6 68
1983359S13083 1984 99 SI MM SHARON 1983-12-28 21:00:00 TS -17.5490 87.0040 main 2196 2174 __________P_P_ -1 -17.5330 86.9554 1 32 -17.5650 87.0526 TC 32 998 5 59
1983359S13083 1984 99 SI MM SHARON 1983-12-29 00:00:00 TS -17.4000 87.2000 main 2174 2165 __________O_O_ -1 -17.4000 87.2000 1 32 -17.4000 87.2000 TC 30 1000 4 36
1983359S13083 1984 99 SI MM SHARON 1983-12-29 03:00:00 TS -17.2654 87.2178 main 2165 2156 __________P_P_ -1 -17.2957 87.2482 1 30 -17.2350 87.1874 TC 27 1000 3 352
1983359S13083 1984 99 SI MM SHARON 1983-12-29 06:00:00 TS -17.1461 87.1561 main 2148 2148 __________P_O_ -1 -17.1923 87.2123 1 29 -17.1000 87.1000 TC 25 1001 2 329
1983359S13083 1984 99 SI MM SHARON 1983-12-29 09:00:00 TS -17.0676 87.0926 main 2154 2145 __________P_P_ -1 -17.0927 87.1202 1 28 -17.0425 87.0650 TC 25 1001 2 314
1983359S13083 1984 99 SI MM SHARON 1983-12-29 12:00:00 TS -17.0000 87.0000 main 2152 2150 __________O_O_ -1 -17.0000 87.0000 1 27 -17.0000 87.0000 TC 25 1002 3 307
1983359S13083 1984 99 SI MM SHARON 1983-12-29 15:00:00 TS -16.9049 86.8668 main 2150 2148 __________P_P_ -1 -16.9098 86.8762 1 25 -16.9000 86.8575 TC 25 1002 3 305
1983359S13083 1984 99 SI MM SHARON 1983-12-29 18:00:00 TS -16.8138 86.7175 main 2155 2153 __________P_O_ -1 -16.8276 86.7349 1 24 -16.8000 86.7000 TC 25 1002 3 303
1983359S13083 1984 99 SI MM SHARON 1983-12-29 21:00:00 TS -16.7458 86.6043 main 2153 2153 __________P_P_ -1 -16.7566 86.6012 1 23 -16.7350 86.6075 TC 25 1002 2 299
1983359S13083 1984 99 SI MM SHARON 1983-12-30 00:00:00 TS -16.7000 86.5000 main 2160 2160 __________O_O_ -1 -16.7000 86.5000 1 22 -16.7000 86.5000 TC 25 1002 2 288
1983359S13083 1984 99 SI MM SHARON 1983-12-30 03:00:00 TS -16.6803 86.3943 main 2167 2167 __________P_P_ -1 -16.6605 86.4885 1 22 -16.7001 86.3000 TC 25 1002 2 280
1983359S13083 1984 99 SI MM SHARON 1983-12-30 06:00:00 TS -16.6674 86.3038 main 2174 2165 __________P_I_ -1 -16.6349 86.5076 1 22 -16.7000 86.1000 TC 25 1002 1 289
1983359S13083 1984 99 SI MM SHARON 1983-12-30 09:00:00 TS -16.6334 86.2539 main 2165 2165 __________P_P_ -1 -16.6168 86.5229 1 22 -16.6500 85.9850 TC 25 1002 1 305
1983359S13083 1984 99 SI MM SHARON 1983-12-30 12:00:00 NR -16.6000 86.2000 main 2172 2172 __________O_O_ -1 -16.6000 86.5000 1 22 -16.6000 85.9000 TC 25 1003 1 287
1983359S13083 1984 99 SI MM SHARON 1983-12-30 15:00:00 NR -16.5898 86.1067 main 2179 2179 __________P_P_ -1 -16.5795 86.4134 1 22 -16.6000 85.8000 TC 22 1003 2 276
1983359S13083 1984 99 SI MM SHARON 1983-12-30 18:00:00 TS -16.5776 85.9862 main 2186 2185 __________P_O_ -1 -16.5552 86.2724 1 22 -16.6000 85.7000 TC 20 1004 3 280
1983359S13083 1984 99 SI MM SHARON 1983-12-30 21:00:00 TS -16.5454 85.8476 main 2192 2192 __________P_P_ -1 -16.5283 86.0952 1 22 -16.5625 85.6000 TC 20 1004 3 286
1983359S13083 1984 99 SI MM SHARON 1983-12-31 00:00:00 TS -16.5000 85.7000 main 2199 __________O_O_ -1 -16.5000 85.9000 1 22 -16.5000 85.5000 TC 20 1005 3 288

About IBTrACS Database

This database is a web-friendly format of International Best Track Archive for Climate Stewardship (IBTrACS), a global best track data archive curated by NOAA dating back to 1842.

Updated: 2021-12-03